Time;durP1;ratioP1;P1;durP2;ratioP2;P2;SDS_P1;SDS_P2;PMS_P1;PMS_P2;Temp;Humidity;BMP_temperature;BMP_pressure;BME280_temperature;BME280_humidity;BME280_pressure;Samples;Min_cycle;Max_cycle;Signal;HPM_P1;HPM_P2
2021/08/21 00:00:58;;;;;;;3.15;2.85;;;15.40;94.80;;;;;;4985145;28;20465;-77
2021/08/21 00:03:23;;;;;;;4.88;4.38;;;15.60;95.00;;;;;;4985101;28;20512;-78
2021/08/21 00:05:49;;;;;;;4.07;3.63;;;15.70;94.90;;;;;;4969273;28;20041;-77
2021/08/21 00:08:14;;;;;;;3.92;3.10;;;15.60;94.80;;;;;;4987147;28;20470;-77
2021/08/21 00:10:40;;;;;;;7.13;4.70;;;15.50;94.80;;;;;;4999641;28;20497;-78
2021/08/21 00:13:08;;;;;;;5.05;4.55;;;15.60;95.00;;;;;;4986189;28;20038;-78
2021/08/21 00:15:34;;;;;;;7.05;3.38;;;15.60;94.50;;;;;;4984101;28;20025;-77
2021/08/21 00:17:59;;;;;;;6.53;4.63;;;15.60;94.80;;;;;;4997057;28;20034;-77
2021/08/21 00:20:25;;;;;;;4.70;3.47;;;15.60;95.20;;;;;;4972508;28;20126;-77
2021/08/21 00:22:50;;;;;;;7.40;4.60;;;15.40;94.70;;;;;;4968725;28;20046;-77
2021/08/21 00:25:16;;;;;;;8.25;4.65;;;15.30;94.70;;;;;;4974855;28;20037;-78
2021/08/21 00:27:42;;;;;;;8.20;4.85;;;15.20;95.60;;;;;;4982746;28;20037;-78
2021/08/21 00:30:11;;;;;;;5.45;4.50;;;15.10;95.00;;;;;;4987029;28;20038;-78
2021/08/21 00:32:37;;;;;;;5.00;3.85;;;15.00;95.10;;;;;;4986260;28;20041;-78
2021/08/21 00:35:04;;;;;;;8.65;5.55;;;15.00;95.20;;;;;;4983986;28;20025;-78
2021/08/21 00:37:29;;;;;;;8.18;6.15;;;14.90;95.10;;;;;;4981169;28;20034;-77
2021/08/21 00:39:55;;;;;;;5.57;4.20;;;14.90;95.10;;;;;;4986997;28;20084;-78
2021/08/21 00:42:20;;;;;;;4.55;4.00;;;14.80;95.10;;;;;;4983746;28;20037;-77
2021/08/21 00:44:46;;;;;;;5.97;3.95;;;14.80;95.10;;;;;;4986173;28;20046;-79
2021/08/21 00:47:16;;;;;;;4.22;3.83;;;14.90;95.40;;;;;;5000424;28;20575;-77
2021/08/21 00:49:46;;;;;;;7.60;3.90;;;14.90;95.20;;;;;;4968458;28;20556;-77
2021/08/21 00:52:23;;;;;;;4.15;3.75;;;14.90;95.10;;;;;;4991982;28;20065;-77
2021/08/21 00:54:48;;;;;;;4.30;3.60;;;14.80;95.10;;;;;;4993214;28;20496;-77
2021/08/21 00:57:14;;;;;;;5.10;4.60;;;14.80;95.10;;;;;;4984246;28;20030;-76
2021/08/21 00:59:43;;;;;;;6.25;5.30;;;14.70;95.10;;;;;;5003624;28;20088;-77
2021/08/21 01:02:09;;;;;;;9.57;5.88;;;14.70;95.10;;;;;;4965991;28;20589;-77
2021/08/21 01:04:36;;;;;;;7.05;4.50;;;14.50;95.10;;;;;;4987279;28;20042;-78
2021/08/21 01:07:06;;;;;;;5.97;5.13;;;14.50;95.40;;;;;;5001451;28;20069;-77
2021/08/21 01:09:31;;;;;;;6.97;6.28;;;14.50;95.40;;;;;;5017394;28;20349;-77
2021/08/21 01:11:57;;;;;;;10.48;6.78;;;14.50;95.30;;;;;;4969450;28;20803;-77
2021/08/21 01:14:26;;;;;;;6.30;4.57;;;14.50;95.50;;;;;;5004204;28;20028;-78
2021/08/21 01:16:53;;;;;;;5.40;4.30;;;14.40;95.50;;;;;;4973349;28;20058;-76
2021/08/21 01:19:19;;;;;;;9.98;6.15;;;14.40;95.40;;;;;;4969546;28;20026;-76
2021/08/21 01:21:45;;;;;;;8.85;7.03;;;14.40;95.50;;;;;;4972505;28;20093;-76
2021/08/21 01:24:10;;;;;;;9.20;6.60;;;14.30;95.50;;;;;;4983621;28;20085;-77
2021/08/21 01:26:46;;;;;;;9.70;6.28;;;14.20;95.50;;;;;;5004997;28;20058;-78
2021/08/21 01:29:12;;;;;;;8.35;6.13;;;14.20;95.50;;;;;;5001655;28;20045;-78
2021/08/21 01:31:37;;;;;;;4.95;4.45;;;14.20;95.50;;;;;;5019360;28;20055;-78
2021/08/21 01:34:03;;;;;;;5.47;4.28;;;14.30;95.50;;;;;;4989369;28;20084;-79
2021/08/21 01:36:47;;;;;;;5.88;4.15;;;14.20;95.60;;;;;;4972695;28;20049;-79
2021/08/21 01:39:12;;;;;;;5.43;4.50;;;14.40;95.90;;;;;;4984474;28;20565;-79
2021/08/21 01:41:40;;;;;;;4.97;4.50;;;14.30;95.60;;;;;;5009241;28;20022;-79
2021/08/21 01:44:09;;;;;;;4.53;4.05;;;14.30;95.50;;;;;;4988867;28;20308;-78
2021/08/21 01:46:35;;;;;;;4.93;4.43;;;14.20;95.70;;;;;;4988482;28;20030;-79
2021/08/21 01:49:07;;;;;;;6.22;5.25;;;14.30;95.70;;;;;;5005429;28;20061;-78
2021/08/21 01:51:32;;;;;;;7.40;6.30;;;14.20;95.80;;;;;;4982410;28;20030;-78
2021/08/21 01:53:58;;;;;;;10.18;7.03;;;14.10;95.70;;;;;;4989119;28;20025;-78
2021/08/21 01:56:24;;;;;;;9.80;7.18;;;13.90;95.70;;;;;;4989273;28;20081;-78
2021/08/21 01:58:50;;;;;;;9.98;7.15;;;13.80;96.10;;;;;;5005044;28;20030;-78
2021/08/21 02:01:16;;;;;;;12.90;8.90;;;13.80;96.40;;;;;;4971287;28;20500;-79
2021/08/21 02:03:45;;;;;;;10.75;7.63;;;13.80;95.90;;;;;;4986945;28;20037;-79
2021/08/21 02:06:11;;;;;;;12.48;7.55;;;13.70;96.00;;;;;;5005805;28;20048;-78
2021/08/21 02:08:37;;;;;;;12.98;8.38;;;13.70;96.70;;;;;;5022498;28;20025;-78
2021/08/21 02:11:02;;;;;;;20.00;9.30;;;13.60;96.50;;;;;;4997560;28;20052;-79
2021/08/21 02:13:28;;;;;;;11.98;8.15;;;13.60;96.10;;;;;;4989549;28;20180;-78
2021/08/21 02:15:53;;;;;;;12.75;8.32;;;13.60;96.50;;;;;;4988996;28;20045;-79
2021/08/21 02:18:19;;;;;;;8.55;7.45;;;13.60;96.10;;;;;;4986307;28;20318;-79
2021/08/21 02:20:46;;;;;;;10.27;7.80;;;13.60;96.40;;;;;;4988086;28;20429;-80
2021/08/21 02:23:12;;;;;;;8.70;6.00;;;13.60;96.70;;;;;;4987445;28;20112;-78
2021/08/21 02:25:38;;;;;;;5.90;5.32;;;13.70;96.30;;;;;;5004222;28;20120;-79
2021/08/21 02:28:08;;;;;;;8.65;5.65;;;13.70;96.10;;;;;;5002460;28;20049;-78
2021/08/21 02:30:36;;;;;;;9.65;5.03;;;13.80;96.50;;;;;;5004381;28;20038;-78
2021/08/21 02:33:01;;;;;;;6.07;3.85;;;14.00;96.60;;;;;;4988001;28;20045;-78
2021/08/21 02:35:26;;;;;;;7.00;4.57;;;14.10;96.60;;;;;;5005547;28;20038;-78
2021/08/21 02:37:52;;;;;;;6.38;5.20;;;14.20;96.40;;;;;;4999380;28;20029;-78
2021/08/21 02:40:18;;;;;;;11.85;7.45;;;14.10;96.60;;;;;;4988536;28;20022;-77
2021/08/21 02:42:43;;;;;;;10.55;7.32;;;13.90;96.90;;;;;;4972074;28;20042;-78
2021/08/21 02:45:09;;;;;;;15.48;8.02;;;13.70;98.20;;;;;;4982649;28;20065;-78
2021/08/21 02:47:35;;;;;;;5.03;4.45;;;13.60;97.40;;;;;;4987671;28;20739;-78
2021/08/21 02:50:01;;;;;;;7.35;6.25;;;13.70;96.80;;;;;;4988828;28;20034;-77
2021/08/21 02:52:26;;;;;;;8.15;6.30;;;13.70;96.60;;;;;;4989610;28;20056;-78
2021/08/21 02:54:52;;;;;;;7.65;5.45;;;13.60;96.60;;;;;;4987117;28;20048;-78
2021/08/21 02:57:17;;;;;;;8.57;6.13;;;13.60;96.30;;;;;;4980760;28;20523;-78
2021/08/21 02:59:43;;;;;;;8.40;6.68;;;13.60;96.40;;;;;;4988403;28;20042;-78
2021/08/21 03:02:08;;;;;;;10.40;6.65;;;13.50;96.30;;;;;;4989005;28;20052;-78
2021/08/21 03:04:34;;;;;;;11.27;6.15;;;13.40;96.30;;;;;;4985898;28;20126;-79
2021/08/21 03:06:59;;;;;;;9.25;5.13;;;13.40;96.60;;;;;;4971537;28;20027;-80
2021/08/21 03:09:25;;;;;;;5.22;4.30;;;13.50;96.50;;;;;;4987946;28;20060;-78
2021/08/21 03:11:50;;;;;;;8.50;6.18;;;13.60;96.40;;;;;;4970890;28;20550;-78
2021/08/21 03:14:16;;;;;;;8.43;6.95;;;13.40;96.60;;;;;;5001958;28;20085;-78
2021/08/21 03:16:41;;;;;;;8.45;5.78;;;13.40;97.20;;;;;;5003306;28;20185;-77
2021/08/21 03:19:08;;;;;;;11.80;7.75;;;13.40;96.90;;;;;;4970577;28;20036;-78
2021/08/21 03:21:33;;;;;;;14.05;8.13;;;13.40;96.90;;;;;;4988309;28;20148;-78
2021/08/21 03:23:59;;;;;;;11.80;8.40;;;13.20;96.50;;;;;;4971408;28;20572;-77
2021/08/21 03:26:24;;;;;;;9.90;6.65;;;13.20;97.90;;;;;;4970600;28;20042;-78
2021/08/21 03:28:50;;;;;;;8.10;6.93;;;13.20;97.90;;;;;;4971292;28;20153;-78
2021/08/21 03:31:15;;;;;;;7.90;6.20;;;13.30;97.20;;;;;;4971701;28;20128;-78
2021/08/21 03:33:42;;;;;;;9.45;7.57;;;13.30;96.90;;;;;;4987934;28;20107;-78
2021/08/21 03:36:07;;;;;;;9.55;8.55;;;13.30;97.00;;;;;;4984545;28;20034;-78
2021/08/21 03:38:33;;;;;;;13.50;7.45;;;13.10;97.60;;;;;;4986025;28;20029;-79
2021/08/21 03:40:58;;;;;;;10.27;7.82;;;13.00;97.70;;;;;;4978443;28;20080;-77
2021/08/21 03:43:24;;;;;;;12.15;6.80;;;13.00;97.90;;;;;;4981352;28;20109;-77
2021/08/21 03:45:49;;;;;;;10.52;6.60;;;13.10;97.00;;;;;;4986385;28;20034;-78
2021/08/21 03:48:15;;;;;;;11.60;7.55;;;13.10;97.20;;;;;;4995744;28;20038;-78
2021/08/21 03:50:40;;;;;;;13.23;7.93;;;13.00;97.40;;;;;;4999715;28;20037;-77
2021/08/21 03:53:06;;;;;;;12.25;8.57;;;12.90;97.70;;;;;;4983887;28;20040;-78
2021/08/21 03:55:31;;;;;;;15.50;8.68;;;12.80;97.80;;;;;;5014059;28;20116;-78
2021/08/21 03:57:58;;;;;;;11.80;8.63;;;12.80;97.20;;;;;;4971353;28;20028;-77
2021/08/21 04:00:24;;;;;;;13.63;9.02;;;12.70;98.00;;;;;;4986318;28;20076;-78
2021/08/21 04:02:49;;;;;;;13.40;9.48;;;12.70;97.90;;;;;;4970456;28;20030;-78
2021/08/21 04:05:15;;;;;;;14.90;8.82;;;12.70;97.80;;;;;;4969626;28;20088;-77
2021/08/21 04:07:40;;;;;;;16.38;9.93;;;12.70;98.00;;;;;;5009513;28;20034;-78
2021/08/21 04:10:06;;;;;;;15.10;9.65;;;12.70;97.70;;;;;;4985813;28;20437;-78
2021/08/21 04:12:32;;;;;;;13.10;9.25;;;12.70;97.90;;;;;;4986569;28;20038;-78
2021/08/21 04:14:58;;;;;;;16.98;9.75;;;12.70;98.80;;;;;;4984385;28;20096;-78
2021/08/21 04:17:23;;;;;;;15.65;9.85;;;12.70;97.70;;;;;;4963756;28;20046;-79
2021/08/21 04:19:49;;;;;;;16.50;10.35;;;12.60;97.90;;;;;;4963947;28;20118;-79
2021/08/21 04:22:15;;;;;;;18.70;10.73;;;12.70;98.20;;;;;;5003755;28;20496;-79
2021/08/21 04:24:40;;;;;;;15.85;9.65;;;12.70;98.60;;;;;;5018862;28;20030;-77
2021/08/21 04:27:06;;;;;;;16.13;10.18;;;12.70;97.80;;;;;;5019207;28;20038;-78
2021/08/21 04:29:31;;;;;;;11.90;9.70;;;12.70;97.90;;;;;;4970875;28;20044;-79
2021/08/21 04:31:57;;;;;;;18.70;10.85;;;12.70;98.00;;;;;;4970220;28;20044;-78
2021/08/21 04:34:22;;;;;;;17.23;11.00;;;12.70;97.90;;;;;;4975499;28;20029;-77
2021/08/21 04:36:48;;;;;;;14.75;10.60;;;12.70;98.00;;;;;;4968434;28;20026;-79
2021/08/21 04:39:13;;;;;;;16.45;10.77;;;12.70;98.00;;;;;;4985755;28;20030;-79
2021/08/21 04:41:39;;;;;;;14.85;11.93;;;12.80;97.60;;;;;;5002515;28;20030;-78
2021/08/21 04:44:04;;;;;;;14.85;8.48;;;12.80;98.20;;;;;;4978792;28;20046;-79
2021/08/21 04:46:30;;;;;;;18.15;10.70;;;12.90;97.90;;;;;;4972623;28;20080;-79
2021/08/21 04:48:55;;;;;;;14.30;9.68;;;13.00;97.80;;;;;;4976098;28;20042;-78
2021/08/21 04:51:21;;;;;;;14.93;10.20;;;13.00;97.50;;;;;;4970225;28;20034;-79
2021/08/21 04:53:47;;;;;;;14.40;9.52;;;13.10;97.50;;;;;;4986219;28;20033;-79
2021/08/21 04:56:12;;;;;;;17.30;11.70;;;13.20;98.60;;;;;;4984866;28;20115;-79
2021/08/21 04:58:38;;;;;;;20.42;12.40;;;13.20;98.70;;;;;;4985047;28;20037;-78
2021/08/21 05:01:03;;;;;;;17.70;12.15;;;13.20;98.70;;;;;;4971627;28;20041;-79
2021/08/21 05:03:29;;;;;;;22.63;13.07;;;13.30;98.80;;;;;;4999211;28;20456;-79
2021/08/21 05:05:54;;;;;;;21.27;12.07;;;13.30;98.90;;;;;;4969112;28;20037;-78
2021/08/21 05:08:20;;;;;;;17.85;12.45;;;13.40;98.90;;;;;;4999601;28;20150;-78
2021/08/21 05:10:45;;;;;;;10.77;8.45;;;13.50;99.00;;;;;;4969550;28;20044;-78
2021/08/21 05:13:11;;;;;;;22.20;13.10;;;13.60;98.70;;;;;;4998706;28;20037;-79
2021/08/21 05:15:39;;;;;;;20.85;11.90;;;13.60;98.90;;;;;;4985890;28;20046;-79
2021/08/21 05:18:05;;;;;;;23.30;13.43;;;13.70;98.90;;;;;;4978838;28;20078;-78
2021/08/21 05:23:29;;;;;;;13.02;9.50;;;13.80;98.70;;;;;;4971013;28;20110;-79
2021/08/21 05:25:54;;;;;;;20.40;12.20;;;13.90;98.20;;;;;;4983113;28;20054;-80
2021/08/21 05:28:20;;;;;;;15.25;10.68;;;14.00;98.80;;;;;;4984529;28;20044;-79
2021/08/21 05:30:45;;;;;;;25.15;14.35;;;14.10;98.20;;;;;;4996538;28;20400;-79
2021/08/21 05:33:15;;;;;;;21.02;13.40;;;14.10;98.30;;;;;;4997931;28;20129;-78
2021/08/21 05:35:41;;;;;;;19.45;13.35;;;14.20;98.50;;;;;;4987463;28;20030;-79
2021/08/21 05:38:06;;;;;;;29.35;15.80;;;14.20;98.30;;;;;;4969652;28;20072;-78
2021/08/21 05:40:32;;;;;;;24.83;16.63;;;14.30;98.40;;;;;;5016669;28;20041;-79
2021/08/21 05:42:58;;;;;;;27.55;15.88;;;14.40;98.30;;;;;;5001834;28;20133;-78
2021/08/21 05:45:23;;;;;;;30.90;15.93;;;14.40;98.50;;;;;;4983569;28;20042;-78
2021/08/21 05:47:49;;;;;;;20.83;11.93;;;14.50;98.40;;;;;;4969335;28;20048;-78
2021/08/21 05:50:15;;;;;;;23.35;15.82;;;14.50;98.00;;;;;;4969005;28;20420;-78
2021/08/21 05:52:41;;;;;;;30.38;17.13;;;14.60;98.00;;;;;;5017193;28;20030;-78
2021/08/21 05:55:07;;;;;;;28.05;16.73;;;14.70;98.10;;;;;;4984202;28;20045;-78
2021/08/21 05:57:33;;;;;;;33.83;17.08;;;14.70;98.10;;;;;;4980267;28;20053;-78
2021/08/21 05:59:58;;;;;;;32.58;16.70;;;14.80;97.80;;;;;;4982208;28;20113;-78
2021/08/21 06:02:25;;;;;;;29.15;15.82;;;14.90;97.80;;;;;;4986905;28;20034;-78
2021/08/21 06:04:52;;;;;;;26.30;16.00;;;14.90;97.90;;;;;;4982080;28;20077;-78
2021/08/21 06:07:17;;;;;;;27.65;17.33;;;15.00;97.70;;;;;;4991344;28;20026;-79
2021/08/21 06:09:43;;;;;;;33.50;18.10;;;15.10;97.50;;;;;;4967892;28;20034;-78
2021/08/21 06:12:08;;;;;;;28.40;17.13;;;15.20;97.70;;;;;;4971199;28;20072;-78
2021/08/21 06:14:37;;;;;;;20.38;13.30;;;15.30;97.70;;;;;;4988492;28;20111;-78
2021/08/21 06:17:05;;;;;;;29.85;18.75;;;15.40;97.60;;;;;;4963243;28;20398;-77
2021/08/21 06:19:30;;;;;;;25.88;14.68;;;15.50;97.50;;;;;;4986048;28;20042;-79
2021/08/21 06:21:56;;;;;;;30.10;16.88;;;15.50;97.60;;;;;;4999567;28;20026;-77
2021/08/21 06:24:21;;;;;;;28.05;17.65;;;15.60;97.40;;;;;;4988838;28;20022;-78
2021/08/21 06:26:47;;;;;;;30.20;18.13;;;15.70;97.70;;;;;;4972337;28;20027;-78
2021/08/21 06:29:12;;;;;;;24.58;12.88;;;15.80;97.60;;;;;;5004045;28;20038;-77
2021/08/21 06:31:38;;;;;;;26.35;16.20;;;15.90;97.60;;;;;;5003420;28;20030;-77
2021/08/21 06:34:04;;;;;;;23.40;16.90;;;16.00;97.80;;;;;;4986959;28;20603;-78
2021/08/21 06:36:29;;;;;;;31.65;18.85;;;16.10;97.60;;;;;;4986020;28;20052;-78
2021/08/21 06:38:55;;;;;;;29.25;18.58;;;16.20;97.70;;;;;;4988093;28;20049;-78
2021/08/21 06:41:20;;;;;;;27.48;17.50;;;16.30;97.50;;;;;;4988794;28;20461;-79
2021/08/21 06:43:46;;;;;;;24.38;17.35;;;16.40;97.50;;;;;;5005481;28;20571;-79
2021/08/21 06:46:11;;;;;;;28.40;17.25;;;16.50;97.70;;;;;;5004554;28;20030;-78
2021/08/21 06:48:37;;;;;;;25.35;16.60;;;16.70;97.80;;;;;;5002245;28;20037;-77
2021/08/21 06:51:02;;;;;;;26.23;17.85;;;16.80;97.60;;;;;;4986373;28;20033;-77
2021/08/21 06:53:29;;;;;;;21.55;15.45;;;17.00;97.80;;;;;;4970743;28;20597;-78
2021/08/21 06:55:55;;;;;;;24.20;16.10;;;17.10;97.70;;;;;;5002715;28;20533;-79
2021/08/21 06:58:21;;;;;;;20.67;13.68;;;17.30;97.90;;;;;;4969873;28;20053;-78
2021/08/21 07:00:47;;;;;;;22.98;15.70;;;17.40;97.90;;;;;;4966683;28;20045;-78
2021/08/21 07:03:12;;;;;;;21.02;14.45;;;17.40;97.80;;;;;;4983175;28;20173;-79
2021/08/21 07:05:38;;;;;;;16.85;12.68;;;17.60;97.80;;;;;;5003306;28;20045;-77
2021/08/21 07:08:04;;;;;;;20.63;13.77;;;17.80;97.50;;;;;;4986164;28;20031;-78
2021/08/21 07:10:29;;;;;;;17.25;11.40;;;17.90;97.40;;;;;;5002984;28;20545;-77
2021/08/21 07:12:55;;;;;;;12.80;9.93;;;18.00;97.30;;;;;;5003054;28;20353;-78
2021/08/21 07:15:20;;;;;;;14.75;12.32;;;18.20;97.20;;;;;;4978183;28;20034;-78
2021/08/21 07:17:46;;;;;;;15.75;11.15;;;18.30;97.50;;;;;;4965506;28;20030;-78
2021/08/21 07:20:12;;;;;;;10.73;9.18;;;18.40;97.40;;;;;;4996590;28;20046;-79
2021/08/21 07:22:37;;;;;;;14.68;11.40;;;18.60;97.00;;;;;;4980497;28;20121;-78
2021/08/21 07:25:03;;;;;;;14.52;10.02;;;18.80;97.20;;;;;;5000750;28;20549;-77
2021/08/21 07:27:29;;;;;;;12.15;9.88;;;18.90;97.00;;;;;;5003508;28;20059;-78
2021/08/21 07:29:54;;;;;;;7.18;5.78;;;19.10;97.60;;;;;;4971637;28;20030;-79
2021/08/21 07:32:20;;;;;;;7.63;5.68;;;19.20;96.00;;;;;;4987012;28;20058;-78
2021/08/21 07:34:45;;;;;;;6.47;4.70;;;19.20;96.70;;;;;;4982179;28;20108;-78
2021/08/21 07:37:11;;;;;;;4.90;4.13;;;19.30;95.90;;;;;;4984973;28;20045;-77
2021/08/21 07:39:36;;;;;;;8.15;6.20;;;19.40;95.90;;;;;;4985670;28;20642;-78
2021/08/21 07:42:02;;;;;;;11.50;8.30;;;19.60;96.00;;;;;;4988103;28;20025;-78
2021/08/21 07:44:29;;;;;;;11.77;6.88;;;19.90;95.90;;;;;;4986543;28;20033;-78
2021/08/21 07:46:54;;;;;;;8.52;5.95;;;20.30;96.10;;;;;;4987283;28;20026;-79
2021/08/21 07:49:20;;;;;;;8.02;6.05;;;20.50;95.40;;;;;;4999732;28;20457;-79
2021/08/21 07:51:45;;;;;;;4.20;3.58;;;20.50;96.20;;;;;;4999755;28;20107;-77
2021/08/21 07:54:11;;;;;;;5.53;4.78;;;20.90;94.90;;;;;;4970548;28;20148;-77
2021/08/21 07:56:36;;;;;;;10.85;7.45;;;21.10;95.80;;;;;;4987314;28;20033;-78
2021/08/21 07:59:02;;;;;;;9.57;6.97;;;21.60;97.80;;;;;;4984551;28;20031;-78
2021/08/21 08:01:27;;;;;;;10.38;6.65;;;21.90;97.70;;;;;;4970954;28;20400;-78
2021/08/21 08:03:53;;;;;;;5.35;4.40;;;22.20;97.20;;;;;;4970406;28;20556;-79
2021/08/21 08:06:18;;;;;;;8.30;5.72;;;22.10;96.10;;;;;;4970838;28;20236;-78
2021/08/21 08:08:44;;;;;;;13.93;8.00;;;22.00;96.60;;;;;;4971141;28;20053;-78
2021/08/21 08:11:09;;;;;;;10.93;7.88;;;22.60;95.80;;;;;;4975762;28;20614;-79
2021/08/21 08:13:35;;;;;;;6.25;4.68;;;22.90;98.10;;;;;;4984836;28;20034;-79
2021/08/21 08:16:00;;;;;;;11.70;6.72;;;23.10;96.00;;;;;;4982631;28;20045;-79
2021/08/21 08:18:26;;;;;;;9.38;6.32;;;23.20;97.10;;;;;;4987106;28;20034;-79
2021/08/21 08:20:52;;;;;;;5.75;4.65;;;23.50;97.80;;;;;;4962703;28;20054;-79
2021/08/21 08:23:17;;;;;;;4.72;3.58;;;23.60;93.70;;;;;;4983591;28;20030;-80
2021/08/21 08:25:43;;;;;;;11.38;7.38;;;24.00;94.00;;;;;;5003615;28;20038;-80
2021/08/21 08:28:08;;;;;;;6.43;3.80;;;23.80;96.30;;;;;;4969244;28;20038;-79
2021/08/21 08:30:34;;;;;;;12.18;7.72;;;24.20;93.60;;;;;;4975963;28;20026;-80
2021/08/21 08:32:59;;;;;;;11.20;7.28;;;24.30;96.80;;;;;;4972795;28;20033;-80
2021/08/21 08:35:25;;;;;;;9.40;4.47;;;24.70;96.20;;;;;;4967963;28;20600;-81
2021/08/21 08:37:50;;;;;;;8.35;4.90;;;24.50;92.90;;;;;;4984987;28;20485;-81
2021/08/21 08:40:16;;;;;;;6.57;4.55;;;24.60;93.50;;;;;;5001100;28;20034;-81
2021/08/21 08:42:42;;;;;;;8.30;5.50;;;25.00;95.20;;;;;;4980188;28;20046;-81
2021/08/21 08:45:09;;;;;;;7.28;5.30;;;25.20;94.20;;;;;;4971037;28;20039;-82
2021/08/21 08:47:36;;;;;;;7.93;6.28;;;25.10;95.30;;;;;;4986166;28;20034;-80
2021/08/21 08:50:04;;;;;;;5.50;4.88;;;25.60;95.10;;;;;;4970124;28;20060;-82
2021/08/21 08:52:30;;;;;;;5.47;3.92;;;25.70;93.30;;;;;;5002701;28;20505;-82
2021/08/21 08:54:55;;;;;;;6.38;4.35;;;25.70;92.20;;;;;;5000342;28;20057;-81
2021/08/21 08:57:32;;;;;;;8.77;5.50;;;25.90;94.40;;;;;;5001843;28;20457;-81
2021/08/21 08:59:58;;;;;;;8.48;6.25;;;26.50;93.50;;;;;;4982298;28;20149;-78
2021/08/21 09:02:37;;;;;;;8.65;5.25;;;26.50;93.90;;;;;;5002550;28;20117;-78
2021/08/21 09:05:05;;;;;;;7.25;4.22;;;26.70;93.40;;;;;;4990823;28;20056;-80
2021/08/21 09:07:44;;;;;;;5.18;3.67;;;26.90;92.10;;;;;;4985011;28;20056;-80
2021/08/21 09:10:27;;;;;;;5.10;4.03;;;26.90;90.40;;;;;;4969703;28;20461;-80
2021/08/21 09:13:12;;;;;;;8.13;5.30;;;26.80;92.50;;;;;;4988516;28;20371;-79
2021/08/21 09:15:58;;;;;;;4.63;3.40;;;27.70;92.80;;;;;;4984315;28;20034;-79
2021/08/21 09:18:28;;;;;;;6.50;4.85;;;27.90;91.00;;;;;;4986740;28;20026;-76
2021/08/21 09:21:03;;;;;;;6.65;4.88;;;28.20;92.20;;;;;;4970513;28;20196;-79
2021/08/21 09:23:28;;;;;;;5.45;3.80;;;28.40;91.60;;;;;;4983521;28;20057;-78
2021/08/21 09:26:14;;;;;;;5.28;4.78;;;28.50;91.30;;;;;;5001902;28;20509;-79
2021/08/21 09:28:44;;;;;;;7.30;3.78;;;28.70;90.50;;;;;;5002007;28;20045;-78
2021/08/21 09:31:17;;;;;;;5.63;2.80;;;28.70;90.80;;;;;;4985833;28;20072;-79
2021/08/21 09:33:50;;;;;;;7.80;5.05;;;28.40;86.50;;;;;;4984076;28;20498;-77
2021/08/21 09:36:32;;;;;;;6.15;5.00;;;28.90;88.70;;;;;;4988214;28;20042;-78
2021/08/21 09:39:09;;;;;;;6.10;5.10;;;29.30;86.80;;;;;;5005419;28;20532;-77
2021/08/21 09:41:53;;;;;;;9.70;4.65;;;29.60;84.80;;;;;;4991253;28;20088;-77
2021/08/21 09:44:32;;;;;;;7.00;3.58;;;29.70;84.40;;;;;;5006158;28;20045;-78
2021/08/21 09:47:11;;;;;;;3.65;2.50;;;29.70;82.90;;;;;;5006241;28;20056;-78
2021/08/21 09:49:37;;;;;;;5.45;3.55;;;29.80;82.30;;;;;;4977539;28;20025;-78
2021/08/21 09:52:06;;;;;;;3.03;2.63;;;29.70;81.90;;;;;;4974921;28;20541;-76
2021/08/21 09:54:32;;;;;;;3.92;3.10;;;29.70;83.10;;;;;;5005151;28;20030;-78
2021/08/21 09:56:57;;;;;;;4.43;3.58;;;29.70;83.10;;;;;;4981014;28;20037;-78
2021/08/21 09:59:37;;;;;;;3.17;2.75;;;29.60;83.40;;;;;;4971527;28;20486;-76
2021/08/21 10:02:13;;;;;;;4.53;2.92;;;29.70;81.40;;;;;;4961311;28;20022;-77
2021/08/21 10:04:40;;;;;;;7.38;3.67;;;29.70;82.90;;;;;;4987042;28;20037;-78
2021/08/21 10:07:07;;;;;;;6.60;3.80;;;30.10;83.50;;;;;;4989255;28;20530;-77
2021/08/21 10:09:34;;;;;;;7.95;4.57;;;30.80;78.60;;;;;;4984732;28;20501;-77
2021/08/21 10:12:00;;;;;;;6.07;4.07;;;30.80;78.10;;;;;;4990046;28;20031;-78
2021/08/21 10:14:26;;;;;;;7.50;4.13;;;30.80;79.10;;;;;;4973504;28;20079;-78
2021/08/21 10:16:51;;;;;;;4.60;3.05;;;30.80;78.00;;;;;;5000141;28;20091;-78
2021/08/21 10:19:18;;;;;;;5.80;4.35;;;30.80;76.80;;;;;;4972557;28;20026;-79
2021/08/21 10:21:54;;;;;;;6.15;4.05;;;30.70;78.90;;;;;;4983669;28;20031;-78
2021/08/21 10:24:31;;;;;;;4.25;3.65;;;30.80;77.40;;;;;;4999187;28;20038;-77
2021/08/21 10:27:08;;;;;;;7.50;3.25;;;30.90;77.90;;;;;;4975559;28;20034;-78
2021/08/21 10:29:34;;;;;;;7.28;2.95;;;31.10;76.80;;;;;;4998824;28;20593;-77
2021/08/21 10:32:00;;;;;;;3.75;3.30;;;31.20;77.20;;;;;;4984652;28;20283;-80
2021/08/21 10:34:25;;;;;;;3.75;2.40;;;31.30;75.00;;;;;;4987739;28;20026;-79
2021/08/21 10:36:52;;;;;;;3.78;2.38;;;31.40;75.10;;;;;;4988120;28;20118;-79
2021/08/21 10:39:24;;;;;;;1.98;1.73;;;31.50;74.10;;;;;;5005938;28;20041;-78
2021/08/21 10:41:51;;;;;;;4.10;2.88;;;31.30;74.00;;;;;;5004014;28;20149;-79
2021/08/21 10:44:42;;;;;;;4.85;2.60;;;31.20;73.50;;;;;;4980670;28;20034;-78
2021/08/21 10:47:27;;;;;;;4.13;2.13;;;31.50;73.10;;;;;;4987041;28;20393;-78
2021/08/21 10:49:53;;;;;;;7.10;2.40;;;31.50;73.70;;;;;;5004449;28;20561;-78
2021/08/21 10:52:52;;;;;;;1.90;1.70;;;31.60;73.20;;;;;;5018558;28;20070;-78
2021/08/21 10:55:20;;;;;;;2.10;1.90;;;31.50;72.50;;;;;;5004902;28;20409;-79
2021/08/21 10:57:58;;;;;;;3.63;2.25;;;31.50;71.90;;;;;;4983076;28;20368;-79
2021/08/21 11:00:39;;;;;;;2.88;1.73;;;31.30;72.30;;;;;;4982907;28;20026;-79
2021/08/21 11:03:08;;;;;;;2.00;1.50;;;31.60;72.60;;;;;;4987652;28;20498;-78
2021/08/21 11:05:54;;;;;;;3.30;1.77;;;31.60;70.20;;;;;;5002951;28;20558;-79
2021/08/21 11:08:24;;;;;;;2.75;1.55;;;31.70;69.00;;;;;;4654325;28;9999713;-79
2021/08/21 11:11:10;;;;;;;3.65;1.95;;;31.70;68.00;;;;;;5007583;28;20057;-78
2021/08/21 11:14:07;;;;;;;1.52;1.42;;;31.50;67.80;;;;;;5017793;28;20038;-78
2021/08/21 11:16:55;;;;;;;2.38;1.40;;;31.60;69.60;;;;;;5009893;28;20029;-79
2021/08/21 11:19:41;;;;;;;3.85;1.52;;;31.60;67.90;;;;;;4985294;28;20030;-79
2021/08/21 11:22:10;;;;;;;2.78;1.90;;;31.70;68.30;;;;;;4982564;28;20026;-79
2021/08/21 11:24:35;;;;;;;2.13;1.90;;;31.80;67.40;;;;;;5013053;28;20062;-79
2021/08/21 11:27:22;;;;;;;2.28;1.70;;;31.50;67.00;;;;;;4973559;28;20026;-79
2021/08/21 11:30:12;;;;;;;3.53;2.33;;;31.60;67.10;;;;;;5000426;28;20109;-78
2021/08/21 11:33:03;;;;;;;1.98;1.77;;;31.50;65.40;;;;;;5001705;28;20065;-79
2021/08/21 11:35:45;;;;;;;3.75;2.30;;;31.50;66.10;;;;;;4995628;28;20030;-79
2021/08/21 11:38:32;;;;;;;3.70;1.98;;;31.60;67.70;;;;;;4998664;28;20096;-79
2021/08/21 11:40:59;;;;;;;2.97;2.00;;;31.60;66.10;;;;;;4999685;28;20030;-76
2021/08/21 11:43:29;;;;;;;3.25;1.85;;;31.50;66.20;;;;;;4986442;28;20026;-79
2021/08/21 11:45:56;;;;;;;3.42;2.25;;;31.50;66.20;;;;;;4981871;28;20049;-79
2021/08/21 11:48:28;;;;;;;4.55;3.25;;;31.40;63.30;;;;;;5003522;28;20088;-79
2021/08/21 11:50:54;;;;;;;3.67;2.00;;;31.30;64.90;;;;;;4985411;28;20431;-79
2021/08/21 11:53:21;;;;;;;4.18;1.90;;;31.30;65.10;;;;;;4977973;28;20034;-79
2021/08/21 11:55:47;;;;;;;1.85;1.65;;;31.20;65.90;;;;;;4978786;28;20073;-79
2021/08/21 11:58:12;;;;;;;2.80;1.75;;;31.20;65.40;;;;;;4968089;28;20095;-79
2021/08/21 12:00:44;;;;;;;4.47;2.42;;;31.20;66.20;;;;;;4982223;28;20096;-79
2021/08/21 12:03:11;;;;;;;2.13;1.65;;;31.40;66.60;;;;;;4968334;28;20517;-80
2021/08/21 12:05:46;;;;;;;2.90;2.35;;;31.50;66.50;;;;;;4983831;28;20100;-80
2021/08/21 12:08:24;;;;;;;3.80;1.87;;;31.60;65.30;;;;;;5000181;28;20049;-79
2021/08/21 12:11:02;;;;;;;2.42;1.90;;;31.60;65.50;;;;;;5002365;28;20277;-79
2021/08/21 12:13:35;;;;;;;2.92;1.67;;;31.60;65.50;;;;;;4986612;28;20477;-80
2021/08/21 12:16:08;;;;;;;1.63;1.48;;;31.50;64.60;;;;;;4979597;28;20141;-79
2021/08/21 12:18:35;;;;;;;6.82;1.85;;;31.50;64.80;;;;;;4966085;28;20041;-81
2021/08/21 12:21:01;;;;;;;2.08;1.88;;;31.60;65.80;;;;;;4983005;28;20048;-80
2021/08/21 12:23:26;;;;;;;3.65;1.60;;;31.80;65.90;;;;;;5000935;28;20066;-80
2021/08/21 12:25:56;;;;;;;1.85;1.50;;;32.00;63.40;;;;;;5000431;28;20077;-79
2021/08/21 12:28:24;;;;;;;1.83;1.60;;;32.00;61.90;;;;;;4997341;28;20034;-79
2021/08/21 12:31:02;;;;;;;2.28;1.40;;;31.90;63.10;;;;;;5014893;28;20034;-79
2021/08/21 12:33:41;;;;;;;2.45;1.90;;;31.80;63.30;;;;;;5000080;28;20084;-79
2021/08/21 12:36:21;;;;;;;1.73;1.63;;;31.80;63.70;;;;;;4981346;28;20038;-79
2021/08/21 12:39:06;;;;;;;1.52;1.42;;;31.90;60.90;;;;;;4982352;28;20030;-79
2021/08/21 12:41:33;;;;;;;1.67;1.40;;;32.00;63.70;;;;;;5017711;28;20096;-79
2021/08/21 12:44:14;;;;;;;1.40;1.30;;;32.10;64.10;;;;;;4973941;28;20398;-79
2021/08/21 12:46:54;;;;;;;1.83;1.33;;;32.10;64.70;;;;;;5001497;28;20666;-79
2021/08/21 12:49:36;;;;;;;3.67;1.73;;;32.10;64.10;;;;;;4985917;28;20030;-79